createdAt,value
2022-11-17T12:21:25.010Z,-77
2022-11-17T12:24:17.495Z,-77
2022-11-17T12:26:45.400Z,-76
2022-11-17T12:29:22.005Z,-77
2022-11-17T12:31:57.595Z,-77
2022-11-17T12:34:31.818Z,-79
2022-11-17T12:37:23.918Z,-78
2022-11-17T12:39:52.747Z,-78
2022-11-17T12:42:19.973Z,-77
2022-11-17T12:45:04.578Z,-78
2022-11-17T12:47:43.087Z,-78
2022-11-17T12:50:19.695Z,-75
2022-11-17T12:53:26.949Z,-76
2022-11-17T12:56:03.308Z,-78
2022-11-17T12:58:58.115Z,-78
2022-11-17T13:02:11.107Z,-77
2022-11-17T13:05:14.519Z,-78
2022-11-17T13:07:41.819Z,-76
2022-11-17T13:10:31.556Z,-79
2022-11-17T13:13:23.043Z,-77
2022-11-17T13:15:57.747Z,-77
2022-11-17T13:18:37.953Z,-78
2022-11-17T13:21:32.794Z,-79
2022-11-17T13:24:00.840Z,-77
2022-11-17T13:26:31.896Z,-77
2022-11-17T13:29:10.830Z,-76
2022-11-17T13:31:38.348Z,-78
2022-11-17T13:34:15.999Z,-78
2022-11-17T13:36:56.423Z,-76
2022-11-17T13:39:27.256Z,-76
2022-11-17T13:42:02.333Z,-79
2022-11-17T13:44:31.001Z,-78
2022-11-17T13:47:20.749Z,-76
2022-11-17T13:49:48.524Z,-77
2022-11-17T13:52:46.708Z,-77
2022-11-17T13:55:22.992Z,-77
2022-11-17T13:58:00.189Z,-77
2022-11-17T14:00:29.908Z,-76
2022-11-17T14:03:36.257Z,-76
2022-11-17T14:06:12.934Z,-79
2022-11-17T14:08:42.858Z,-78
2022-11-17T14:11:10.236Z,-76
2022-11-17T14:13:56.563Z,-79
2022-11-17T14:16:41.432Z,-77
2022-11-17T14:19:15.064Z,-78
2022-11-17T14:22:11.466Z,-80
2022-11-17T14:24:40.557Z,-79
2022-11-17T14:27:27.000Z,-75
2022-11-17T14:29:54.233Z,-78
2022-11-17T14:32:21.708Z,-79
2022-11-17T14:34:49.004Z,-77
2022-11-17T14:37:16.529Z,-78
2022-11-17T14:39:43.767Z,-76
2022-11-17T14:42:11.368Z,-79
2022-11-17T14:44:38.635Z,-75
2022-11-17T14:47:06.125Z,-79
2022-11-17T14:49:33.351Z,-78
2022-11-17T14:52:00.591Z,-78
2022-11-17T14:54:27.791Z,-77
2022-11-17T14:56:55.000Z,-79
2022-11-17T14:59:22.210Z,-81
2022-11-17T15:01:49.416Z,-79
2022-11-17T15:04:48.313Z,-80
2022-11-17T15:07:03.780Z,-80
2022-11-17T15:09:31.169Z,-78
2022-11-17T15:11:58.443Z,-79
2022-11-17T15:14:25.811Z,-80
2022-11-17T15:16:53.089Z,-80
2022-11-17T15:19:20.344Z,-78
2022-11-17T15:21:47.671Z,-78
2022-11-17T15:24:15.421Z,-80
2022-11-17T15:26:42.970Z,-78
2022-11-17T15:29:14.953Z,-79
2022-11-17T15:31:42.746Z,-80
2022-11-17T15:34:19.718Z,-77
2022-11-17T15:36:48.317Z,-79
2022-11-17T15:39:19.294Z,-80
2022-11-17T15:41:47.911Z,-79
2022-11-17T15:44:15.710Z,-77
2022-11-17T15:46:47.359Z,-78
2022-11-17T15:49:15.751Z,-77
2022-11-17T15:51:43.165Z,-79
2022-11-17T15:54:20.074Z,-78
2022-11-17T15:56:48.253Z,-79
2022-11-17T15:59:15.742Z,-78
2022-11-17T16:01:43.564Z,-78
2022-11-17T16:04:15.603Z,-78
2022-11-17T16:06:45.349Z,-79
2022-11-17T16:09:13.756Z,-80
2022-11-17T16:11:41.256Z,-80
2022-11-17T16:14:09.248Z,-78
2022-11-17T16:16:39.117Z,-79
2022-11-17T16:19:07.285Z,-76
2022-11-17T16:21:34.611Z,-79
2022-11-17T16:24:02.013Z,-77
2022-11-17T16:26:30.941Z,-77
2022-11-17T16:29:05.438Z,-79
2022-11-17T16:31:36.144Z,-79
2022-11-17T16:34:14.040Z,-80
2022-11-17T16:36:43.614Z,-76
2022-11-17T16:39:15.497Z,-78
2022-11-17T16:41:45.283Z,-79
2022-11-17T16:44:18.782Z,-79
2022-11-17T16:46:48.726Z,-80
2022-11-17T16:49:19.644Z,-80
2022-11-17T16:51:52.875Z,-81
2022-11-17T16:54:20.773Z,-80
2022-11-17T16:56:48.421Z,-81
2022-11-17T16:59:16.689Z,-82
2022-11-17T17:01:44.432Z,-80
2022-11-17T17:04:12.540Z,-82
2022-11-17T17:06:43.272Z,-79
2022-11-17T17:09:14.119Z,-80
2022-11-17T17:11:42.401Z,-80
2022-11-17T17:14:14.331Z,-80
2022-11-17T17:16:42.501Z,-79
2022-11-17T17:19:11.496Z,-81
2022-11-17T17:21:40.433Z,-81
2022-11-17T17:24:09.660Z,-80
2022-11-17T17:26:38.543Z,-81
2022-11-17T17:29:07.094Z,-81
2022-11-17T17:31:39.374Z,-81
2022-11-17T17:34:08.621Z,-79
2022-11-17T17:36:36.295Z,-83
2022-11-17T17:39:05.165Z,-83
2022-11-17T17:41:39.902Z,-80
2022-11-17T17:44:13.482Z,-82
2022-11-17T17:46:40.779Z,-78
2022-11-17T17:49:08.242Z,-80
2022-11-17T17:51:43.752Z,-82
2022-11-17T17:54:20.253Z,-80
2022-11-17T17:56:48.098Z,-81
2022-11-17T17:59:16.042Z,-81
2022-11-17T18:01:44.121Z,-82
2022-11-17T18:04:17.009Z,-80
2022-11-17T18:06:46.504Z,-80
2022-11-17T18:09:14.879Z,-83
2022-11-17T18:11:42.287Z,-81
2022-11-17T18:14:10.504Z,-79
2022-11-17T18:16:37.805Z,-82
2022-11-17T18:19:08.469Z,-81
2022-11-17T18:21:36.804Z,-82
2022-11-17T18:24:04.915Z,-81
2022-11-17T18:26:35.424Z,-81
2022-11-17T18:29:06.838Z,-81
2022-11-17T18:31:36.827Z,-81
2022-11-17T18:34:21.517Z,-83
2022-11-17T18:36:51.707Z,-82
2022-11-17T18:39:19.790Z,-81
2022-11-17T18:41:47.293Z,-82
2022-11-17T18:44:17.432Z,-82
2022-11-17T18:46:45.606Z,-80
2022-11-17T18:49:12.846Z,-82
2022-11-17T18:51:40.025Z,-82
2022-11-17T18:54:07.306Z,-83
2022-11-17T18:56:37.562Z,-81
2022-11-17T18:59:07.088Z,-81
2022-11-17T19:01:34.339Z,-83
2022-11-17T19:04:01.793Z,-82
2022-11-17T19:06:29.898Z,-82
2022-11-17T19:09:01.142Z,-79
2022-11-17T19:11:30.160Z,-84
2022-11-17T19:14:00.710Z,-81
2022-11-17T19:16:29.028Z,-82
2022-11-17T19:18:57.719Z,-81
2022-11-17T19:21:33.752Z,-80
2022-11-17T19:24:03.811Z,-81
2022-11-17T19:26:34.698Z,-82
2022-11-17T19:29:07.084Z,-82
2022-11-17T19:31:37.790Z,-83
2022-11-17T19:34:05.509Z,-81
2022-11-17T19:36:34.304Z,-83
2022-11-17T19:39:03.016Z,-83
2022-11-17T19:41:35.424Z,-81
2022-11-17T19:44:06.023Z,-83
2022-11-17T19:46:34.369Z,-82
2022-11-17T19:49:01.918Z,-82
2022-11-17T19:51:35.914Z,-83
2022-11-17T19:54:06.877Z,-82
2022-11-17T19:56:34.775Z,-82
2022-11-17T19:59:02.395Z,-83
2022-11-17T20:01:31.598Z,-83
2022-11-17T20:04:01.220Z,-83
2022-11-17T20:06:34.610Z,-82
2022-11-17T20:09:05.997Z,-83
2022-11-17T20:11:33.275Z,-81
2022-11-17T20:14:00.978Z,-82
2022-11-17T20:16:29.615Z,-82
2022-11-17T20:19:00.004Z,-81
2022-11-17T20:21:29.446Z,-83
2022-11-17T20:23:58.183Z,-80
2022-11-17T20:26:29.669Z,-80
2022-11-17T20:28:58.813Z,-82
2022-11-17T20:31:30.494Z,-83
2022-11-17T20:34:00.908Z,-82
2022-11-17T20:36:31.484Z,-83
2022-11-17T20:39:02.371Z,-82
2022-11-17T20:41:33.087Z,-82
2022-11-17T20:44:01.191Z,-81
2022-11-17T20:46:28.933Z,-82
2022-11-17T20:48:56.388Z,-82
2022-11-17T20:51:25.418Z,-83
2022-11-17T20:53:52.697Z,-83
2022-11-17T20:56:20.629Z,-83
2022-11-17T20:58:48.194Z,-81
2022-11-17T21:01:21.932Z,-82
2022-11-17T21:03:49.419Z,-82
2022-11-17T21:06:18.111Z,-81
2022-11-17T21:08:46.546Z,-82
2022-11-17T21:11:17.948Z,-81
2022-11-17T21:13:45.181Z,-83
2022-11-17T21:16:14.959Z,-81
2022-11-17T21:18:48.240Z,-80
2022-11-17T21:21:16.456Z,-82
2022-11-17T21:23:44.450Z,-81
2022-11-17T21:26:16.912Z,-81
2022-11-17T21:28:44.491Z,-82
2022-11-17T21:31:20.770Z,-81
2022-11-17T21:33:55.020Z,-84
2022-11-17T21:36:24.289Z,-83
2022-11-17T21:38:52.561Z,-82
2022-11-17T21:41:26.324Z,-81
2022-11-17T21:43:57.598Z,-83
2022-11-17T21:46:28.085Z,-82
2022-11-17T21:48:58.073Z,-83
2022-11-17T21:51:32.282Z,-82
2022-11-17T21:54:02.897Z,-82
2022-11-17T21:56:30.562Z,-83
2022-11-17T21:59:12.729Z,-83
2022-11-17T22:01:40.661Z,-83
2022-11-17T22:04:08.352Z,-83
2022-11-17T22:06:35.557Z,-83
2022-11-17T22:09:03.119Z,-81
2022-11-17T22:11:31.764Z,-82
2022-11-17T22:13:58.925Z,-82
2022-11-17T22:16:26.247Z,-83
2022-11-17T22:18:53.480Z,-82
2022-11-17T22:21:20.735Z,-84
2022-11-17T22:23:47.923Z,-83
2022-11-17T22:26:15.133Z,-82
2022-11-17T22:28:42.459Z,-82
2022-11-17T22:31:10.475Z,-83
2022-11-17T22:33:37.667Z,-83
2022-11-17T22:36:05.219Z,-83
2022-11-17T22:38:32.976Z,-83
2022-11-17T22:41:03.212Z,-83
2022-11-17T22:43:31.009Z,-83
2022-11-17T22:46:03.316Z,-84
2022-11-17T22:48:31.389Z,-84
2022-11-17T22:51:00.116Z,-86
2022-11-17T22:53:28.289Z,-83
2022-11-17T22:55:55.594Z,-83
2022-11-17T22:58:22.907Z,-82
2022-11-17T23:00:50.188Z,-84
2022-11-17T23:03:17.384Z,-84
2022-11-17T23:05:44.586Z,-84
2022-11-17T23:08:11.752Z,-82
2022-11-17T23:10:38.899Z,-83
2022-11-17T23:13:06.158Z,-83
2022-11-17T23:15:33.495Z,-84
2022-11-17T23:18:00.692Z,-83
2022-11-17T23:20:27.927Z,-83
2022-11-17T23:22:55.319Z,-83
2022-11-17T23:25:22.470Z,-83
2022-11-17T23:27:49.578Z,-84
2022-11-17T23:30:17.117Z,-84
2022-11-17T23:32:44.276Z,-82
2022-11-17T23:35:11.399Z,-80
2022-11-17T23:37:38.764Z,-84
2022-11-17T23:40:06.621Z,-82
2022-11-17T23:42:37.393Z,-84
2022-11-17T23:45:08.275Z,-85
2022-11-17T23:47:35.642Z,-83
2022-11-17T23:50:03.239Z,-83
2022-11-17T23:52:30.881Z,-84
2022-11-17T23:54:58.136Z,-83
2022-11-17T23:57:25.219Z,-83
2022-11-17T23:59:52.500Z,-83
